sensor_id;sensor_type;location;lat;lon;timestamp;temperature;humidity
22635;DHT22;11484;50.858;4.384;2023-03-16T00:00:14;8.40;99.90
22635;DHT22;11484;50.858;4.384;2023-03-16T00:02:41;8.30;99.90
22635;DHT22;11484;50.858;4.384;2023-03-16T00:05:12;8.30;99.90
22635;DHT22;11484;50.858;4.384;2023-03-16T00:07:37;8.30;99.90
22635;DHT22;11484;50.858;4.384;2023-03-16T00:10:04;8.30;99.90
22635;DHT22;11484;50.858;4.384;2023-03-16T00:12:30;8.40;99.90
22635;DHT22;11484;50.858;4.384;2023-03-16T00:14:59;8.40;99.90
22635;DHT22;11484;50.858;4.384;2023-03-16T00:17:26;8.40;99.90
22635;DHT22;11484;50.858;4.384;2023-03-16T00:19:54;8.40;99.90
22635;DHT22;11484;50.858;4.384;2023-03-16T00:22:25;8.40;99.90
22635;DHT22;11484;50.858;4.384;2023-03-16T00:24:51;8.40;99.90
22635;DHT22;11484;50.858;4.384;2023-03-16T00:27:18;8.30;99.90
22635;DHT22;11484;50.858;4.384;2023-03-16T00:29:45;8.30;99.90
22635;DHT22;11484;50.858;4.384;2023-03-16T00:32:19;8.40;99.90
22635;DHT22;11484;50.858;4.384;2023-03-16T00:34:46;8.50;99.90
22635;DHT22;11484;50.858;4.384;2023-03-16T00:37:14;8.40;99.90
22635;DHT22;11484;50.858;4.384;2023-03-16T00:39:44;8.40;99.90
22635;DHT22;11484;50.858;4.384;2023-03-16T00:42:10;8.40;99.90
22635;DHT22;11484;50.858;4.384;2023-03-16T00:44:37;8.40;99.90
22635;DHT22;11484;50.858;4.384;2023-03-16T00:47:04;8.40;99.90
22635;DHT22;11484;50.858;4.384;2023-03-16T00:49:31;8.50;99.90
22635;DHT22;11484;50.858;4.384;2023-03-16T00:52:03;8.50;99.90
22635;DHT22;11484;50.858;4.384;2023-03-16T00:54:30;8.50;99.90
22635;DHT22;11484;50.858;4.384;2023-03-16T00:56:58;8.40;99.90
22635;DHT22;11484;50.858;4.384;2023-03-16T00:59:24;8.40;99.90
22635;DHT22;11484;50.858;4.384;2023-03-16T01:01:53;8.40;99.90
22635;DHT22;11484;50.858;4.384;2023-03-16T01:04:19;8.40;99.90
22635;DHT22;11484;50.858;4.384;2023-03-16T01:06:45;8.40;99.90
22635;DHT22;11484;50.858;4.384;2023-03-16T01:09:11;8.50;99.90
22635;DHT22;11484;50.858;4.384;2023-03-16T01:11:40;8.40;99.90
22635;DHT22;11484;50.858;4.384;2023-03-16T01:14:08;8.50;99.90
22635;DHT22;11484;50.858;4.384;2023-03-16T01:16:34;8.60;99.90
22635;DHT22;11484;50.858;4.384;2023-03-16T01:19:00;8.60;99.90
22635;DHT22;11484;50.858;4.384;2023-03-16T01:21:26;8.60;99.90
22635;DHT22;11484;50.858;4.384;2023-03-16T01:23:52;8.60;99.90
22635;DHT22;11484;50.858;4.384;2023-03-16T01:26:19;8.60;99.90
22635;DHT22;11484;50.858;4.384;2023-03-16T01:28:45;8.60;99.90
22635;DHT22;11484;50.858;4.384;2023-03-16T01:31:13;8.60;99.90
22635;DHT22;11484;50.858;4.384;2023-03-16T01:33:39;8.70;99.90
22635;DHT22;11484;50.858;4.384;2023-03-16T01:36:12;8.70;99.90
22635;DHT22;11484;50.858;4.384;2023-03-16T01:38:38;8.70;99.90
22635;DHT22;11484;50.858;4.384;2023-03-16T01:41:04;8.60;99.90
22635;DHT22;11484;50.858;4.384;2023-03-16T01:43:32;8.70;99.90
22635;DHT22;11484;50.858;4.384;2023-03-16T01:48:46;8.80;99.90
22635;DHT22;11484;50.858;4.384;2023-03-16T01:51:34;8.70;99.90
22635;DHT22;11484;50.858;4.384;2023-03-16T01:54:10;8.70;99.90
22635;DHT22;11484;50.858;4.384;2023-03-16T01:57:35;8.60;99.90
22635;DHT22;11484;50.858;4.384;2023-03-16T01:59:52;8.60;99.90
22635;DHT22;11484;50.858;4.384;2023-03-16T02:02:22;8.60;99.90
22635;DHT22;11484;50.858;4.384;2023-03-16T02:07:39;8.40;99.90
22635;DHT22;11484;50.858;4.384;2023-03-16T02:10:08;8.40;99.90
22635;DHT22;11484;50.858;4.384;2023-03-16T02:12:34;8.40;99.90
22635;DHT22;11484;50.858;4.384;2023-03-16T02:15:00;8.40;99.90
22635;DHT22;11484;50.858;4.384;2023-03-16T02:17:28;8.40;99.90
22635;DHT22;11484;50.858;4.384;2023-03-16T02:22:49;8.40;99.90
22635;DHT22;11484;50.858;4.384;2023-03-16T02:25:21;8.50;99.90
22635;DHT22;11484;50.858;4.384;2023-03-16T02:28:09;8.50;99.90
22635;DHT22;11484;50.858;4.384;2023-03-16T02:30:36;8.50;99.90
22635;DHT22;11484;50.858;4.384;2023-03-16T02:33:03;8.50;99.90
22635;DHT22;11484;50.858;4.384;2023-03-16T02:35:32;8.50;99.90
22635;DHT22;11484;50.858;4.384;2023-03-16T02:37:59;8.50;99.90
22635;DHT22;11484;50.858;4.384;2023-03-16T02:40:31;8.50;99.90
22635;DHT22;11484;50.858;4.384;2023-03-16T02:43:03;8.50;99.90
22635;DHT22;11484;50.858;4.384;2023-03-16T02:45:40;8.40;99.90
22635;DHT22;11484;50.858;4.384;2023-03-16T02:48:11;8.40;99.90
22635;DHT22;11484;50.858;4.384;2023-03-16T02:50:47;8.40;99.90
22635;DHT22;11484;50.858;4.384;2023-03-16T02:53:15;8.50;99.90
22635;DHT22;11484;50.858;4.384;2023-03-16T02:55:41;8.50;99.90
22635;DHT22;11484;50.858;4.384;2023-03-16T02:58:07;8.50;99.90
22635;DHT22;11484;50.858;4.384;2023-03-16T03:00:32;8.50;99.90
22635;DHT22;11484;50.858;4.384;2023-03-16T03:02:58;8.50;99.90
22635;DHT22;11484;50.858;4.384;2023-03-16T03:05:24;8.50;99.90
22635;DHT22;11484;50.858;4.384;2023-03-16T03:07:50;8.60;99.90
22635;DHT22;11484;50.858;4.384;2023-03-16T03:10:16;8.60;99.90
22635;DHT22;11484;50.858;4.384;2023-03-16T03:12:41;8.60;99.90
22635;DHT22;11484;50.858;4.384;2023-03-16T03:15:09;8.60;99.90
22635;DHT22;11484;50.858;4.384;2023-03-16T03:17:35;8.70;99.90
22635;DHT22;11484;50.858;4.384;2023-03-16T03:20:02;8.60;99.90
22635;DHT22;11484;50.858;4.384;2023-03-16T03:22:32;8.60;99.90
22635;DHT22;11484;50.858;4.384;2023-03-16T03:24:58;8.70;99.90
22635;DHT22;11484;50.858;4.384;2023-03-16T03:27:24;8.70;99.90
22635;DHT22;11484;50.858;4.384;2023-03-16T03:29:49;8.60;99.90
22635;DHT22;11484;50.858;4.384;2023-03-16T03:32:15;8.60;99.90
22635;DHT22;11484;50.858;4.384;2023-03-16T03:34:41;8.60;99.90
22635;DHT22;11484;50.858;4.384;2023-03-16T03:37:07;8.70;99.90
22635;DHT22;11484;50.858;4.384;2023-03-16T03:39:32;8.80;99.90
22635;DHT22;11484;50.858;4.384;2023-03-16T03:41:58;8.70;99.90
22635;DHT22;11484;50.858;4.384;2023-03-16T03:44:23;8.80;99.90
22635;DHT22;11484;50.858;4.384;2023-03-16T03:46:50;8.80;99.90
22635;DHT22;11484;50.858;4.384;2023-03-16T03:49:16;8.70;99.90
22635;DHT22;11484;50.858;4.384;2023-03-16T03:51:42;8.50;99.90
22635;DHT22;11484;50.858;4.384;2023-03-16T03:54:09;8.50;99.90
22635;DHT22;11484;50.858;4.384;2023-03-16T03:56:35;8.50;99.90
22635;DHT22;11484;50.858;4.384;2023-03-16T03:59:00;8.50;99.90
22635;DHT22;11484;50.858;4.384;2023-03-16T04:01:26;8.40;99.90
22635;DHT22;11484;50.858;4.384;2023-03-16T04:03:52;8.40;99.90
22635;DHT22;11484;50.858;4.384;2023-03-16T04:06:17;8.40;99.90
22635;DHT22;11484;50.858;4.384;2023-03-16T04:08:43;8.40;99.90
22635;DHT22;11484;50.858;4.384;2023-03-16T04:11:09;8.30;99.90
22635;DHT22;11484;50.858;4.384;2023-03-16T04:13:36;8.40;99.90
22635;DHT22;11484;50.858;4.384;2023-03-16T04:16:02;8.50;99.90
22635;DHT22;11484;50.858;4.384;2023-03-16T04:18:28;8.50;99.90
22635;DHT22;11484;50.858;4.384;2023-03-16T04:20:54;8.60;99.90
22635;DHT22;11484;50.858;4.384;2023-03-16T04:23:20;8.50;99.90
22635;DHT22;11484;50.858;4.384;2023-03-16T04:25:46;8.50;99.90
22635;DHT22;11484;50.858;4.384;2023-03-16T04:28:12;8.60;99.90
22635;DHT22;11484;50.858;4.384;2023-03-16T04:30:42;8.60;99.90
22635;DHT22;11484;50.858;4.384;2023-03-16T04:33:07;8.60;99.90
22635;DHT22;11484;50.858;4.384;2023-03-16T04:35:33;8.60;99.90
22635;DHT22;11484;50.858;4.384;2023-03-16T04:37:59;8.60;99.90
22635;DHT22;11484;50.858;4.384;2023-03-16T04:40:26;8.60;99.90
22635;DHT22;11484;50.858;4.384;2023-03-16T04:42:52;8.60;99.90
22635;DHT22;11484;50.858;4.384;2023-03-16T04:45:18;8.60;99.90
22635;DHT22;11484;50.858;4.384;2023-03-16T04:47:44;8.50;99.90
22635;DHT22;11484;50.858;4.384;2023-03-16T04:50:10;8.50;99.90
22635;DHT22;11484;50.858;4.384;2023-03-16T04:52:37;8.40;99.90
22635;DHT22;11484;50.858;4.384;2023-03-16T04:55:03;8.30;99.90
22635;DHT22;11484;50.858;4.384;2023-03-16T04:57:28;8.30;99.90
22635;DHT22;11484;50.858;4.384;2023-03-16T04:59:55;8.20;99.90
22635;DHT22;11484;50.858;4.384;2023-03-16T05:02:20;8.20;99.90
22635;DHT22;11484;50.858;4.384;2023-03-16T05:04:50;8.20;99.90
22635;DHT22;11484;50.858;4.384;2023-03-16T05:07:15;8.20;99.90
22635;DHT22;11484;50.858;4.384;2023-03-16T05:09:41;8.20;99.90
22635;DHT22;11484;50.858;4.384;2023-03-16T05:12:07;8.20;99.90
22635;DHT22;11484;50.858;4.384;2023-03-16T05:14:33;8.20;99.90
22635;DHT22;11484;50.858;4.384;2023-03-16T05:17:01;8.20;99.90
22635;DHT22;11484;50.858;4.384;2023-03-16T05:19:28;8.20;99.90
22635;DHT22;11484;50.858;4.384;2023-03-16T05:21:54;8.30;99.90
22635;DHT22;11484;50.858;4.384;2023-03-16T05:24:23;8.20;99.90
22635;DHT22;11484;50.858;4.384;2023-03-16T05:26:49;8.20;99.90
22635;DHT22;11484;50.858;4.384;2023-03-16T05:29:14;8.20;99.90
22635;DHT22;11484;50.858;4.384;2023-03-16T05:31:41;8.20;99.90
22635;DHT22;11484;50.858;4.384;2023-03-16T05:34:06;8.10;99.90
22635;DHT22;11484;50.858;4.384;2023-03-16T05:36:32;8.10;99.90
22635;DHT22;11484;50.858;4.384;2023-03-16T05:39:00;8.10;99.90
22635;DHT22;11484;50.858;4.384;2023-03-16T05:41:26;8.10;99.90
22635;DHT22;11484;50.858;4.384;2023-03-16T05:43:53;8.00;99.90
22635;DHT22;11484;50.858;4.384;2023-03-16T05:46:18;8.10;99.90
22635;DHT22;11484;50.858;4.384;2023-03-16T05:48:44;8.00;99.90
22635;DHT22;11484;50.858;4.384;2023-03-16T05:51:10;8.10;99.90
22635;DHT22;11484;50.858;4.384;2023-03-16T05:53:38;8.10;99.90
22635;DHT22;11484;50.858;4.384;2023-03-16T05:56:04;8.20;99.90
22635;DHT22;11484;50.858;4.384;2023-03-16T05:58:30;8.30;99.90
22635;DHT22;11484;50.858;4.384;2023-03-16T06:01:00;8.30;99.90
22635;DHT22;11484;50.858;4.384;2023-03-16T06:03:26;8.30;99.90
22635;DHT22;11484;50.858;4.384;2023-03-16T06:05:52;8.30;99.90
22635;DHT22;11484;50.858;4.384;2023-03-16T06:08:18;8.30;99.90
22635;DHT22;11484;50.858;4.384;2023-03-16T06:10:46;8.30;99.90
22635;DHT22;11484;50.858;4.384;2023-03-16T06:13:12;8.40;99.90
22635;DHT22;11484;50.858;4.384;2023-03-16T06:15:38;8.50;99.90
22635;DHT22;11484;50.858;4.384;2023-03-16T06:18:04;8.40;99.90
22635;DHT22;11484;50.858;4.384;2023-03-16T06:20:30;8.40;99.90
22635;DHT22;11484;50.858;4.384;2023-03-16T06:22:56;8.50;99.90
22635;DHT22;11484;50.858;4.384;2023-03-16T06:25:21;8.50;99.90
22635;DHT22;11484;50.858;4.384;2023-03-16T06:27:48;8.50;99.90
22635;DHT22;11484;50.858;4.384;2023-03-16T06:30:14;8.50;99.90
22635;DHT22;11484;50.858;4.384;2023-03-16T06:32:41;8.50;99.90
22635;DHT22;11484;50.858;4.384;2023-03-16T06:35:07;8.50;99.90
22635;DHT22;11484;50.858;4.384;2023-03-16T06:37:34;8.60;99.90
22635;DHT22;11484;50.858;4.384;2023-03-16T06:40:00;8.60;99.90
22635;DHT22;11484;50.858;4.384;2023-03-16T06:42:25;8.70;99.90
22635;DHT22;11484;50.858;4.384;2023-03-16T06:44:51;8.70;99.90
22635;DHT22;11484;50.858;4.384;2023-03-16T06:47:18;8.70;99.90
22635;DHT22;11484;50.858;4.384;2023-03-16T06:49:44;8.80;99.90
22635;DHT22;11484;50.858;4.384;2023-03-16T06:52:12;8.80;99.90
22635;DHT22;11484;50.858;4.384;2023-03-16T06:54:39;8.80;99.90
22635;DHT22;11484;50.858;4.384;2023-03-16T06:57:05;8.80;99.90
22635;DHT22;11484;50.858;4.384;2023-03-16T06:59:31;8.80;99.90
22635;DHT22;11484;50.858;4.384;2023-03-16T07:01:57;8.70;99.90
22635;DHT22;11484;50.858;4.384;2023-03-16T07:04:23;8.80;99.90
22635;DHT22;11484;50.858;4.384;2023-03-16T07:06:48;8.90;99.90
22635;DHT22;11484;50.858;4.384;2023-03-16T07:09:14;9.00;99.90
22635;DHT22;11484;50.858;4.384;2023-03-16T07:11:40;9.00;99.90
22635;DHT22;11484;50.858;4.384;2023-03-16T07:14:06;9.10;99.90
22635;DHT22;11484;50.858;4.384;2023-03-16T07:16:32;9.10;99.90
22635;DHT22;11484;50.858;4.384;2023-03-16T07:18:58;9.20;99.90
22635;DHT22;11484;50.858;4.384;2023-03-16T07:21:24;9.20;99.90
22635;DHT22;11484;50.858;4.384;2023-03-16T07:23:51;9.20;99.90
22635;DHT22;11484;50.858;4.384;2023-03-16T07:26:17;9.30;99.90
22635;DHT22;11484;50.858;4.384;2023-03-16T07:28:43;9.40;99.90
22635;DHT22;11484;50.858;4.384;2023-03-16T07:31:09;9.60;99.90
22635;DHT22;11484;50.858;4.384;2023-03-16T07:33:35;10.20;99.90
22635;DHT22;11484;50.858;4.384;2023-03-16T07:36:01;10.80;99.90
22635;DHT22;11484;50.858;4.384;2023-03-16T07:38:33;11.30;99.90
22635;DHT22;11484;50.858;4.384;2023-03-16T07:40:59;11.90;99.90
22635;DHT22;11484;50.858;4.384;2023-03-16T07:43:25;12.30;99.90
22635;DHT22;11484;50.858;4.384;2023-03-16T07:45:51;12.70;99.20
22635;DHT22;11484;50.858;4.384;2023-03-16T07:48:18;12.90;97.60
22635;DHT22;11484;50.858;4.384;2023-03-16T07:50:46;12.90;97.40
22635;DHT22;11484;50.858;4.384;2023-03-16T07:53:12;13.10;96.60
22635;DHT22;11484;50.858;4.384;2023-03-16T07:55:41;13.30;95.70
22635;DHT22;11484;50.858;4.384;2023-03-16T07:58:08;14.00;94.70
22635;DHT22;11484;50.858;4.384;2023-03-16T08:00:35;14.40;93.20
22635;DHT22;11484;50.858;4.384;2023-03-16T08:03:01;14.80;91.70
22635;DHT22;11484;50.858;4.384;2023-03-16T08:05:27;14.80;90.30
22635;DHT22;11484;50.858;4.384;2023-03-16T08:07:54;14.60;89.50
22635;DHT22;11484;50.858;4.384;2023-03-16T08:10:21;14.20;90.10
22635;DHT22;11484;50.858;4.384;2023-03-16T08:12:47;14.00;90.50
22635;DHT22;11484;50.858;4.384;2023-03-16T08:15:13;13.90;90.30
22635;DHT22;11484;50.858;4.384;2023-03-16T08:17:40;13.80;90.40
22635;DHT22;11484;50.858;4.384;2023-03-16T08:20:09;13.70;90.40
22635;DHT22;11484;50.858;4.384;2023-03-16T08:22:43;13.60;90.70
22635;DHT22;11484;50.858;4.384;2023-03-16T08:25:10;13.40;90.40
22635;DHT22;11484;50.858;4.384;2023-03-16T08:27:37;13.20;90.90
22635;DHT22;11484;50.858;4.384;2023-03-16T08:30:07;13.10;91.30
22635;DHT22;11484;50.858;4.384;2023-03-16T08:32:36;13.20;91.30
22635;DHT22;11484;50.858;4.384;2023-03-16T08:35:08;13.40;90.90
22635;DHT22;11484;50.858;4.384;2023-03-16T08:37:34;13.60;90.40
22635;DHT22;11484;50.858;4.384;2023-03-16T08:40:00;13.80;89.70
22635;DHT22;11484;50.858;4.384;2023-03-16T08:42:26;13.80;88.70
22635;DHT22;11484;50.858;4.384;2023-03-16T08:44:55;13.90;89.20
22635;DHT22;11484;50.858;4.384;2023-03-16T08:47:22;14.10;88.30
22635;DHT22;11484;50.858;4.384;2023-03-16T08:49:48;14.00;87.20
22635;DHT22;11484;50.858;4.384;2023-03-16T08:52:15;14.30;86.50
22635;DHT22;11484;50.858;4.384;2023-03-16T08:54:41;14.20;86.30
22635;DHT22;11484;50.858;4.384;2023-03-16T08:57:09;14.00;85.20
22635;DHT22;11484;50.858;4.384;2023-03-16T08:59:36;14.20;85.60
22635;DHT22;11484;50.858;4.384;2023-03-16T09:02:02;14.00;85.50
22635;DHT22;11484;50.858;4.384;2023-03-16T09:04:28;13.80;85.70
22635;DHT22;11484;50.858;4.384;2023-03-16T09:06:55;13.60;86.00
22635;DHT22;11484;50.858;4.384;2023-03-16T09:09:20;13.70;86.40
22635;DHT22;11484;50.858;4.384;2023-03-16T09:11:46;13.60;86.00
22635;DHT22;11484;50.858;4.384;2023-03-16T09:14:14;13.40;86.70
22635;DHT22;11484;50.858;4.384;2023-03-16T09:16:40;13.40;86.90
22635;DHT22;11484;50.858;4.384;2023-03-16T09:19:06;13.20;86.90
22635;DHT22;11484;50.858;4.384;2023-03-16T09:21:32;13.00;87.40
22635;DHT22;11484;50.858;4.384;2023-03-16T09:23:59;13.00;88.30
22635;DHT22;11484;50.858;4.384;2023-03-16T09:26:25;13.10;88.90
22635;DHT22;11484;50.858;4.384;2023-03-16T09:28:51;13.10;88.30
22635;DHT22;11484;50.858;4.384;2023-03-16T09:31:20;13.20;87.80
22635;DHT22;11484;50.858;4.384;2023-03-16T09:33:50;13.10;88.50
22635;DHT22;11484;50.858;4.384;2023-03-16T09:36:16;13.00;88.00
22635;DHT22;11484;50.858;4.384;2023-03-16T09:38:43;13.10;88.20
22635;DHT22;11484;50.858;4.384;2023-03-16T09:46:47;13.70;90.40
22635;DHT22;11484;50.858;4.384;2023-03-16T09:49:18;13.90;91.50
22635;DHT22;11484;50.858;4.384;2023-03-16T09:57:51;14.30;83.60
22635;DHT22;11484;50.858;4.384;2023-03-16T10:00:32;14.50;82.10
22635;DHT22;11484;50.858;4.384;2023-03-16T10:05:33;15.20;80.10
22635;DHT22;11484;50.858;4.384;2023-03-16T10:16:18;16.20;75.00
22635;DHT22;11484;50.858;4.384;2023-03-16T10:18:49;16.50;74.70
22635;DHT22;11484;50.858;4.384;2023-03-16T10:21:18;16.40;72.50
22635;DHT22;11484;50.858;4.384;2023-03-16T10:23:46;16.60;71.80
22635;DHT22;11484;50.858;4.384;2023-03-16T10:26:20;16.50;70.90
22635;DHT22;11484;50.858;4.384;2023-03-16T10:28:47;16.10;71.50
22635;DHT22;11484;50.858;4.384;2023-03-16T10:31:14;15.90;72.30
22635;DHT22;11484;50.858;4.384;2023-03-16T10:33:41;15.60;73.40
22635;DHT22;11484;50.858;4.384;2023-03-16T10:38:51;15.20;73.20
22635;DHT22;11484;50.858;4.384;2023-03-16T10:41:23;15.30;73.20
22635;DHT22;11484;50.858;4.384;2023-03-16T10:43:58;15.00;73.50
22635;DHT22;11484;50.858;4.384;2023-03-16T10:46:36;14.70;74.40
22635;DHT22;11484;50.858;4.384;2023-03-16T10:49:03;14.60;75.30
22635;DHT22;11484;50.858;4.384;2023-03-16T10:51:31;14.60;75.20
22635;DHT22;11484;50.858;4.384;2023-03-16T10:54:06;14.60;75.80
22635;DHT22;11484;50.858;4.384;2023-03-16T10:56:35;14.70;74.80
22635;DHT22;11484;50.858;4.384;2023-03-16T10:59:15;14.70;74.50
22635;DHT22;11484;50.858;4.384;2023-03-16T11:01:48;14.80;73.30
22635;DHT22;11484;50.858;4.384;2023-03-16T11:04:14;14.80;73.20
22635;DHT22;11484;50.858;4.384;2023-03-16T11:06:52;14.80;73.40
22635;DHT22;11484;50.858;4.384;2023-03-16T11:09:25;15.00;74.30
22635;DHT22;11484;50.858;4.384;2023-03-16T11:11:52;15.10;72.80
22635;DHT22;11484;50.858;4.384;2023-03-16T11:14:25;14.90;71.90
22635;DHT22;11484;50.858;4.384;2023-03-16T11:16:58;14.80;71.80
22635;DHT22;11484;50.858;4.384;2023-03-16T11:19:32;14.80;72.10
22635;DHT22;11484;50.858;4.384;2023-03-16T11:24:47;14.80;71.60
22635;DHT22;11484;50.858;4.384;2023-03-16T11:27:39;14.80;71.00
22635;DHT22;11484;50.858;4.384;2023-03-16T11:30:40;14.90;70.30
22635;DHT22;11484;50.858;4.384;2023-03-16T11:33:09;14.80;69.70
22635;DHT22;11484;50.858;4.384;2023-03-16T11:38:19;14.70;70.00
22635;DHT22;11484;50.858;4.384;2023-03-16T11:45:51;14.80;69.50
22635;DHT22;11484;50.858;4.384;2023-03-16T11:48:36;14.80;69.90
22635;DHT22;11484;50.858;4.384;2023-03-16T11:51:14;14.80;70.10
22635;DHT22;11484;50.858;4.384;2023-03-16T11:54:21;14.80;70.40
22635;DHT22;11484;50.858;4.384;2023-03-16T11:56:58;14.90;70.10
22635;DHT22;11484;50.858;4.384;2023-03-16T12:02:05;14.80;69.10
22635;DHT22;11484;50.858;4.384;2023-03-16T12:04:57;14.90;79.00
22635;DHT22;11484;50.858;4.384;2023-03-16T12:07:35;15.00;84.00
22635;DHT22;11484;50.858;4.384;2023-03-16T12:10:25;15.20;72.50
22635;DHT22;11484;50.858;4.384;2023-03-16T12:21:15;14.50;70.30
22635;DHT22;11484;50.858;4.384;2023-03-16T12:23:55;14.40;70.50
22635;DHT22;11484;50.858;4.384;2023-03-16T12:26:25;14.30;71.10
22635;DHT22;11484;50.858;4.384;2023-03-16T12:28:55;14.30;71.40
22635;DHT22;11484;50.858;4.384;2023-03-16T12:36:41;14.30;70.60
22635;DHT22;11484;50.858;4.384;2023-03-16T12:39:23;14.20;70.80
22635;DHT22;11484;50.858;4.384;2023-03-16T12:49:44;14.40;71.80
22635;DHT22;11484;50.858;4.384;2023-03-16T12:52:12;14.40;71.50
22635;DHT22;11484;50.858;4.384;2023-03-16T12:57:16;14.70;70.30
22635;DHT22;11484;50.858;4.384;2023-03-16T12:59:45;14.70;70.10
22635;DHT22;11484;50.858;4.384;2023-03-16T13:02:35;14.80;69.50
22635;DHT22;11484;50.858;4.384;2023-03-16T13:05:14;14.90;68.70
22635;DHT22;11484;50.858;4.384;2023-03-16T13:07:51;14.90;68.60
22635;DHT22;11484;50.858;4.384;2023-03-16T13:10:27;14.90;68.50
22635;DHT22;11484;50.858;4.384;2023-03-16T13:12:53;14.90;69.20
22635;DHT22;11484;50.858;4.384;2023-03-16T13:17:49;15.00;68.10
22635;DHT22;11484;50.858;4.384;2023-03-16T13:20:48;15.00;67.80
22635;DHT22;11484;50.858;4.384;2023-03-16T13:26:14;15.20;67.90
22635;DHT22;11484;50.858;4.384;2023-03-16T13:28:41;15.20;66.60
22635;DHT22;11484;50.858;4.384;2023-03-16T13:31:31;15.20;66.70
22635;DHT22;11484;50.858;4.384;2023-03-16T13:34:01;15.20;66.60
22635;DHT22;11484;50.858;4.384;2023-03-16T13:36:29;15.30;66.70
22635;DHT22;11484;50.858;4.384;2023-03-16T13:39:17;15.30;66.80
22635;DHT22;11484;50.858;4.384;2023-03-16T13:42:03;15.40;65.90
22635;DHT22;11484;50.858;4.384;2023-03-16T13:44:40;15.30;66.50
22635;DHT22;11484;50.858;4.384;2023-03-16T13:47:06;15.30;65.70
22635;DHT22;11484;50.858;4.384;2023-03-16T13:49:33;15.40;65.90
22635;DHT22;11484;50.858;4.384;2023-03-16T13:54:43;15.40;65.80
22635;DHT22;11484;50.858;4.384;2023-03-16T13:57:10;15.30;65.50
22635;DHT22;11484;50.858;4.384;2023-03-16T13:59:37;15.40;65.50
22635;DHT22;11484;50.858;4.384;2023-03-16T14:02:16;15.40;64.80
22635;DHT22;11484;50.858;4.384;2023-03-16T14:04:42;15.50;63.70
22635;DHT22;11484;50.858;4.384;2023-03-16T14:07:19;15.40;63.30
22635;DHT22;11484;50.858;4.384;2023-03-16T14:09:45;15.40;63.60
22635;DHT22;11484;50.858;4.384;2023-03-16T14:12:18;15.40;64.60
22635;DHT22;11484;50.858;4.384;2023-03-16T14:14:49;15.40;66.90
22635;DHT22;11484;50.858;4.384;2023-03-16T14:17:20;15.50;67.50
22635;DHT22;11484;50.858;4.384;2023-03-16T14:19:52;15.40;64.10
22635;DHT22;11484;50.858;4.384;2023-03-16T14:22:35;15.50;62.10
22635;DHT22;11484;50.858;4.384;2023-03-16T14:25:03;15.50;62.60
22635;DHT22;11484;50.858;4.384;2023-03-16T14:30:17;15.60;63.10
22635;DHT22;11484;50.858;4.384;2023-03-16T14:33:03;15.70;62.60
22635;DHT22;11484;50.858;4.384;2023-03-16T14:35:37;15.60;61.30
22635;DHT22;11484;50.858;4.384;2023-03-16T14:38:29;15.60;61.10
22635;DHT22;11484;50.858;4.384;2023-03-16T14:41:01;15.60;61.80
22635;DHT22;11484;50.858;4.384;2023-03-16T14:43:33;15.50;60.00
22635;DHT22;11484;50.858;4.384;2023-03-16T14:46:03;15.50;60.70
22635;DHT22;11484;50.858;4.384;2023-03-16T14:48:30;15.50;59.80
22635;DHT22;11484;50.858;4.384;2023-03-16T14:51:00;15.50;59.70
22635;DHT22;11484;50.858;4.384;2023-03-16T14:53:29;15.60;60.10
22635;DHT22;11484;50.858;4.384;2023-03-16T14:55:57;15.70;60.40
22635;DHT22;11484;50.858;4.384;2023-03-16T14:58:23;15.80;60.80
22635;DHT22;11484;50.858;4.384;2023-03-16T15:00:50;16.00;60.10
22635;DHT22;11484;50.858;4.384;2023-03-16T15:03:20;16.10;60.50
22635;DHT22;11484;50.858;4.384;2023-03-16T15:05:49;16.20;61.10
22635;DHT22;11484;50.858;4.384;2023-03-16T15:08:20;16.20;61.60
22635;DHT22;11484;50.858;4.384;2023-03-16T15:10:46;16.30;62.30
22635;DHT22;11484;50.858;4.384;2023-03-16T15:13:15;16.40;62.70
22635;DHT22;11484;50.858;4.384;2023-03-16T15:16:02;16.40;62.50
22635;DHT22;11484;50.858;4.384;2023-03-16T15:18:31;16.30;60.30
22635;DHT22;11484;50.858;4.384;2023-03-16T15:20:59;16.20;59.50
22635;DHT22;11484;50.858;4.384;2023-03-16T15:23:26;16.20;59.90
22635;DHT22;11484;50.858;4.384;2023-03-16T15:25:53;16.10;59.60
22635;DHT22;11484;50.858;4.384;2023-03-16T15:28:26;15.90;60.40
22635;DHT22;11484;50.858;4.384;2023-03-16T15:30:56;15.90;60.80
22635;DHT22;11484;50.858;4.384;2023-03-16T15:33:23;15.90;61.50
22635;DHT22;11484;50.858;4.384;2023-03-16T15:35:51;15.90;62.00
22635;DHT22;11484;50.858;4.384;2023-03-16T15:38:20;15.80;61.90
22635;DHT22;11484;50.858;4.384;2023-03-16T15:40:47;15.80;62.00
22635;DHT22;11484;50.858;4.384;2023-03-16T15:43:17;15.70;61.70
22635;DHT22;11484;50.858;4.384;2023-03-16T15:45:44;15.60;61.90
22635;DHT22;11484;50.858;4.384;2023-03-16T15:48:12;15.60;62.70
22635;DHT22;11484;50.858;4.384;2023-03-16T15:50:40;15.60;63.90
22635;DHT22;11484;50.858;4.384;2023-03-16T15:53:12;15.50;64.70
22635;DHT22;11484;50.858;4.384;2023-03-16T15:55:42;15.50;65.50
22635;DHT22;11484;50.858;4.384;2023-03-16T15:58:20;15.50;66.00
22635;DHT22;11484;50.858;4.384;2023-03-16T16:00:48;15.60;66.40
22635;DHT22;11484;50.858;4.384;2023-03-16T16:03:14;15.60;65.90
22635;DHT22;11484;50.858;4.384;2023-03-16T16:05:40;15.60;65.90
22635;DHT22;11484;50.858;4.384;2023-03-16T16:08:06;15.60;65.40
22635;DHT22;11484;50.858;4.384;2023-03-16T16:10:33;15.50;65.30
22635;DHT22;11484;50.858;4.384;2023-03-16T16:13:00;15.50;64.90
22635;DHT22;11484;50.858;4.384;2023-03-16T16:15:31;15.50;65.30
22635;DHT22;11484;50.858;4.384;2023-03-16T16:18:00;15.60;65.90
22635;DHT22;11484;50.858;4.384;2023-03-16T16:20:29;15.60;64.20
22635;DHT22;11484;50.858;4.384;2023-03-16T16:22:57;15.60;64.20
22635;DHT22;11484;50.858;4.384;2023-03-16T16:25:33;15.60;63.80
22635;DHT22;11484;50.858;4.384;2023-03-16T16:28:00;15.60;64.20
22635;DHT22;11484;50.858;4.384;2023-03-16T16:30:28;15.50;64.30
22635;DHT22;11484;50.858;4.384;2023-03-16T16:32:54;15.50;64.60
22635;DHT22;11484;50.858;4.384;2023-03-16T16:35:23;15.50;64.90
22635;DHT22;11484;50.858;4.384;2023-03-16T16:37:49;15.40;65.30
22635;DHT22;11484;50.858;4.384;2023-03-16T16:40:19;15.30;65.10
22635;DHT22;11484;50.858;4.384;2023-03-16T16:42:46;15.20;64.90
22635;DHT22;11484;50.858;4.384;2023-03-16T16:45:19;15.20;65.40
22635;DHT22;11484;50.858;4.384;2023-03-16T16:47:48;15.20;65.20
22635;DHT22;11484;50.858;4.384;2023-03-16T16:50:24;15.10;65.30
22635;DHT22;11484;50.858;4.384;2023-03-16T16:52:50;15.10;65.30
22635;DHT22;11484;50.858;4.384;2023-03-16T16:55:17;15.00;64.90
22635;DHT22;11484;50.858;4.384;2023-03-16T16:57:44;15.00;64.60
22635;DHT22;11484;50.858;4.384;2023-03-16T17:00:21;14.90;64.30
22635;DHT22;11484;50.858;4.384;2023-03-16T17:02:52;14.90;64.70
22635;DHT22;11484;50.858;4.384;2023-03-16T17:05:24;15.00;64.80
22635;DHT22;11484;50.858;4.384;2023-03-16T17:07:51;14.90;64.70
22635;DHT22;11484;50.858;4.384;2023-03-16T17:10:24;14.90;64.50